Terminal Aerodrome Forecast
Issued by NWS Jackson, MS

Home | Current Version | Previous Version | Text Only | Print | Product List | Glossary On
Versions: 1 2 3 4 5 6 7 8 9 10 11 12
000
FTUS44 KJAN 201700
TAFGWO
TAF
KGWO 201720Z 2018/2118 04005KT P6SM SKC
     FM210800 05003KT 5SM BR SKC
     FM211400 08004KT P6SM SKC=

USA.gov is the U.S. government's official web portal to all federal, state and local government web resources and services.